Time;durP1;ratioP1;P1;durP2;ratioP2;P2;SDS_P1;SDS_P2;PMS_P1;PMS_P2;Temp;Humidity;BMP_temperature;BMP_pressure;BME280_temperature;BME280_humidity;BME280_pressure;Samples;Min_cycle;Max_cycle;Signal;HPM_P1;HPM_P2
2023/10/23 00:01:57;;;;;;;;;;;11.30;99.90;;;;;;2618007;54;19943;-74
2023/10/23 00:04:29;;;;;;;;;;;11.30;99.90;;;;;;2616149;47;19942;-74
2023/10/23 00:06:59;;;;;;;;;;;11.30;99.90;;;;;;2617481;54;20061;-74
2023/10/23 00:09:29;;;;;;;;;;;11.20;99.90;;;;;;2616437;47;19946;-74
2023/10/23 00:11:58;;;;;;;;;;;11.20;99.90;;;;;;2617414;54;19950;-74
2023/10/23 00:14:28;;;;;;;;;;;11.10;99.90;;;;;;2617211;47;20425;-77
2023/10/23 00:16:58;;;;;;;;;;;11.10;99.90;;;;;;2617695;47;19950;-74
2023/10/23 00:19:30;;;;;;;;;;;11.00;99.90;;;;;;2616608;54;19934;-74
2023/10/23 00:22:00;;;;;;;;;;;11.00;99.90;;;;;;2618918;47;19949;-76
2023/10/23 00:24:29;;;;;;;;;;;11.00;99.90;;;;;;2620702;39;20379;-76
2023/10/23 00:26:59;;;;;;;;;;;11.00;99.90;;;;;;2618720;47;19951;-74
2023/10/23 00:29:29;;;;;;;;;;;10.90;99.90;;;;;;2617930;47;19947;-76
2023/10/23 00:31:58;;;;;;;;;;;10.80;99.90;;;;;;2617863;47;19942;-77
2023/10/23 00:34:31;;;;;;;;;;;10.80;99.90;;;;;;2616279;47;19946;-75
2023/10/23 00:37:00;;;;;;;;;;;10.80;99.90;;;;;;2617735;54;20046;-74
2023/10/23 00:39:30;;;;;;;;;;;10.80;99.90;;;;;;2617734;47;19962;-76
2023/10/23 00:42:00;;;;;;;;;;;10.80;99.90;;;;;;2617849;47;19943;-76
2023/10/23 00:44:30;;;;;;;;;;;10.80;99.90;;;;;;2617124;47;19950;-75
2023/10/23 00:46:59;;;;;;;;;;;10.70;99.90;;;;;;2617520;47;19935;-75
2023/10/23 00:49:32;;;;;;;;;;;10.70;99.90;;;;;;2617359;39;20457;-74
2023/10/23 00:52:03;;;;;;;;;;;10.70;99.90;;;;;;2616468;47;19942;-77
2023/10/23 00:54:32;;;;;;;;;;;10.70;99.90;;;;;;2616646;49;19954;-76
2023/10/23 00:57:02;;;;;;;;;;;10.70;99.90;;;;;;2617775;47;20475;-75
2023/10/23 00:59:32;;;;;;;;;;;10.70;99.90;;;;;;2616342;47;19946;-77
2023/10/23 01:02:02;;;;;;;;;;;10.70;99.90;;;;;;2617779;54;19945;-75
2023/10/23 01:04:34;;;;;;;;;;;10.60;99.90;;;;;;2615806;47;19969;-75
2023/10/23 01:07:04;;;;;;;;;;;10.60;99.90;;;;;;2617534;47;20441;-74
2023/10/23 01:09:33;;;;;;;;;;;10.60;99.90;;;;;;2617150;47;20444;-75
2023/10/23 01:12:03;;;;;;;;;;;10.60;99.90;;;;;;2617095;54;19954;-75
2023/10/23 01:14:33;;;;;;;;;;;10.60;99.90;;;;;;2616546;54;19946;-79
2023/10/23 01:17:03;;;;;;;;;;;10.60;99.90;;;;;;2618527;47;19942;-75
2023/10/23 01:19:35;;;;;;;;;;;10.60;99.90;;;;;;2617053;54;19943;-76
2023/10/23 01:22:05;;;;;;;;;;;10.60;99.90;;;;;;2617567;54;19942;-72
2023/10/23 01:24:35;;;;;;;;;;;10.60;99.90;;;;;;2615809;54;20445;-73
2023/10/23 01:27:07;;;;;;;;;;;10.50;99.90;;;;;;2615795;47;20582;-73
2023/10/23 01:29:37;;;;;;;;;;;10.60;99.90;;;;;;2616442;54;19962;-72
2023/10/23 01:32:07;;;;;;;;;;;10.50;99.90;;;;;;2617360;47;19943;-72
2023/10/23 01:34:37;;;;;;;;;;;10.50;99.90;;;;;;2615609;54;19946;-72
2023/10/23 01:37:07;;;;;;;;;;;10.50;99.90;;;;;;2617451;47;19957;-72
2023/10/23 01:39:36;;;;;;;;;;;10.50;99.90;;;;;;2615191;54;19939;-74
2023/10/23 01:42:09;;;;;;;;;;;10.40;99.90;;;;;;2617481;54;19947;-73
2023/10/23 01:44:39;;;;;;;;;;;10.40;99.90;;;;;;2615863;54;19946;-72
2023/10/23 01:47:08;;;;;;;;;;;10.40;99.90;;;;;;2616937;53;19949;-73
2023/10/23 01:49:38;;;;;;;;;;;10.30;99.90;;;;;;2615579;47;19946;-73
2023/10/23 01:52:08;;;;;;;;;;;10.30;99.90;;;;;;2617337;54;20452;-72
2023/10/23 01:54:37;;;;;;;;;;;10.40;99.90;;;;;;2615999;47;19953;-72
2023/10/23 01:57:10;;;;;;;;;;;10.30;99.90;;;;;;2617122;46;19945;-72
2023/10/23 01:59:40;;;;;;;;;;;10.30;99.90;;;;;;2615932;46;19954;-73
2023/10/23 02:02:09;;;;;;;;;;;10.40;99.90;;;;;;2616625;54;19947;-72
2023/10/23 02:04:39;;;;;;;;;;;10.30;99.90;;;;;;2615161;54;19954;-72
2023/10/23 02:07:09;;;;;;;;;;;10.20;99.90;;;;;;2616088;54;20490;-71
2023/10/23 02:09:39;;;;;;;;;;;10.20;99.90;;;;;;2616237;54;19947;-72
2023/10/23 02:12:11;;;;;;;;;;;10.20;99.90;;;;;;2615275;47;19951;-72
2023/10/23 02:14:41;;;;;;;;;;;10.20;99.90;;;;;;2616995;54;19962;-73
2023/10/23 02:17:10;;;;;;;;;;;10.20;99.90;;;;;;2617129;54;19969;-73
2023/10/23 02:19:40;;;;;;;;;;;10.20;99.90;;;;;;2615817;47;20037;-72
2023/10/23 02:22:10;;;;;;;;;;;10.20;99.90;;;;;;2616318;47;19946;-73
2023/10/23 02:24:39;;;;;;;;;;;10.20;99.90;;;;;;2615900;54;20026;-73
2023/10/23 02:27:12;;;;;;;;;;;10.20;99.90;;;;;;2616634;54;19946;-73
2023/10/23 02:29:42;;;;;;;;;;;10.20;99.90;;;;;;2615766;47;20055;-73
2023/10/23 02:32:12;;;;;;;;;;;10.20;99.90;;;;;;2615690;54;20444;-76
2023/10/23 02:34:42;;;;;;;;;;;10.20;99.90;;;;;;2614865;47;19958;-76
2023/10/23 02:37:12;;;;;;;;;;;10.10;99.90;;;;;;2616446;54;19985;-76
2023/10/23 02:39:42;;;;;;;;;;;10.20;99.90;;;;;;2616694;47;19969;-75
2023/10/23 02:42:14;;;;;;;;;;;10.20;99.90;;;;;;2616936;47;19953;-75
2023/10/23 02:44:46;;;;;;;;;;;10.20;99.90;;;;;;2617447;46;19938;-76
2023/10/23 02:47:15;;;;;;;;;;;10.20;99.90;;;;;;2617060;47;20022;-75
2023/10/23 02:49:45;;;;;;;;;;;10.20;99.90;;;;;;2615407;47;20058;-76
2023/10/23 02:52:15;;;;;;;;;;;10.20;99.90;;;;;;2614574;54;19946;-76
2023/10/23 02:54:45;;;;;;;;;;;10.10;99.90;;;;;;2614557;47;20002;-74
2023/10/23 02:57:17;;;;;;;;;;;10.10;99.90;;;;;;2616478;47;19954;-75
2023/10/23 02:59:49;;;;;;;;;;;10.10;99.90;;;;;;2616781;47;19943;-72
2023/10/23 03:02:19;;;;;;;;;;;10.00;99.90;;;;;;2613465;47;20045;-72
2023/10/23 03:04:49;;;;;;;;;;;10.00;99.90;;;;;;2612191;47;20436;-72
2023/10/23 03:07:18;;;;;;;;;;;10.00;99.90;;;;;;2615552;47;19942;-72
2023/10/23 03:09:48;;;;;;;;;;;10.00;99.90;;;;;;2615437;54;19998;-72
2023/10/23 03:12:21;;;;;;;;;;;10.00;99.90;;;;;;2615298;54;19950;-72
2023/10/23 03:14:50;;;;;;;;;;;9.90;99.90;;;;;;2616403;46;19958;-72
2023/10/23 03:17:20;;;;;;;;;;;9.90;99.90;;;;;;2616289;54;19954;-72
2023/10/23 03:19:50;;;;;;;;;;;9.90;99.90;;;;;;2615481;54;19975;-72
2023/10/23 03:22:20;;;;;;;;;;;9.80;99.90;;;;;;2615389;54;19947;-71
2023/10/23 03:24:50;;;;;;;;;;;9.80;99.90;;;;;;2616657;47;19990;-72
2023/10/23 03:27:23;;;;;;;;;;;9.70;99.90;;;;;;2617580;54;19950;-71
2023/10/23 03:29:53;;;;;;;;;;;9.70;99.90;;;;;;2616189;54;19947;-72
2023/10/23 03:32:23;;;;;;;;;;;9.70;99.90;;;;;;2617244;47;19967;-72
2023/10/23 03:34:53;;;;;;;;;;;9.70;99.90;;;;;;2616496;54;19943;-72
2023/10/23 03:37:23;;;;;;;;;;;9.60;99.90;;;;;;2616641;47;19950;-72
2023/10/23 03:39:52;;;;;;;;;;;9.60;99.90;;;;;;2616807;39;20444;-72
2023/10/23 03:42:25;;;;;;;;;;;9.60;99.90;;;;;;2617538;54;19950;-72
2023/10/23 03:44:55;;;;;;;;;;;9.70;99.90;;;;;;2616835;47;19946;-72
2023/10/23 03:47:24;;;;;;;;;;;9.70;99.90;;;;;;2616838;54;19994;-72
2023/10/23 03:49:54;;;;;;;;;;;9.70;99.90;;;;;;2617035;39;20368;-72
2023/10/23 03:52:24;;;;;;;;;;;9.70;99.90;;;;;;2617228;47;20030;-73
2023/10/23 03:54:54;;;;;;;;;;;9.70;99.90;;;;;;2616719;47;19956;-73
2023/10/23 03:57:26;;;;;;;;;;;9.70;99.90;;;;;;2617202;54;19946;-73
2023/10/23 03:59:56;;;;;;;;;;;9.70;99.90;;;;;;2617562;47;19953;-73
2023/10/23 04:02:26;;;;;;;;;;;9.70;99.90;;;;;;2616909;47;20034;-73
2023/10/23 04:04:56;;;;;;;;;;;9.60;99.90;;;;;;2616197;54;19974;-73
2023/10/23 04:07:26;;;;;;;;;;;9.60;99.90;;;;;;2617577;47;19950;-73
2023/10/23 04:09:56;;;;;;;;;;;9.50;99.90;;;;;;2617158;47;19941;-73
2023/10/23 04:12:28;;;;;;;;;;;10.00;99.90;;;;;;2617220;47;19946;-73
2023/10/23 04:14:58;;;;;;;;;;;9.40;99.90;;;;;;2616550;54;20061;-73
2023/10/23 04:17:28;;;;;;;;;;;9.40;99.90;;;;;;2616933;54;19990;-73
2023/10/23 04:19:58;;;;;;;;;;;9.40;99.90;;;;;;2616472;54;19935;-72
2023/10/23 04:22:28;;;;;;;;;;;9.40;99.90;;;;;;2617497;54;19938;-73
2023/10/23 04:24:58;;;;;;;;;;;9.40;99.90;;;;;;2617137;54;19934;-73
2023/10/23 04:27:31;;;;;;;;;;;9.40;99.90;;;;;;2616145;39;20344;-73
2023/10/23 04:30:04;;;;;;;;;;;9.40;99.90;;;;;;2617218;47;19955;-73
2023/10/23 04:32:33;;;;;;;;;;;9.40;99.90;;;;;;2617862;47;19939;-73
2023/10/23 04:35:03;;;;;;;;;;;9.30;99.90;;;;;;2614821;47;19964;-72
2023/10/23 04:37:33;;;;;;;;;;;9.30;99.90;;;;;;2617591;54;19947;-73
2023/10/23 04:40:04;;;;;;;;;;;9.40;99.90;;;;;;2617431;54;19990;-72
2023/10/23 04:42:37;;;;;;;;;;;9.40;99.90;;;;;;2617261;47;19939;-72
2023/10/23 04:45:07;;;;;;;;;;;9.30;99.90;;;;;;2615813;46;19941;-75
2023/10/23 04:47:37;;;;;;;;;;;9.30;99.90;;;;;;2616968;39;20054;-75
2023/10/23 04:50:07;;;;;;;;;;;9.30;99.90;;;;;;2617840;47;19947;-75
2023/10/23 04:52:38;;;;;;;;;;;9.30;99.90;;;;;;2619556;39;20372;-75
2023/10/23 04:55:08;;;;;;;;;;;9.30;99.90;;;;;;2618758;47;20006;-76
2023/10/23 04:57:40;;;;;;;;;;;9.40;99.90;;;;;;2619732;47;19953;-75
2023/10/23 05:00:11;;;;;;;;;;;9.30;99.90;;;;;;2617709;47;19950;-75
2023/10/23 05:02:41;;;;;;;;;;;9.30;99.90;;;;;;2617965;39;20344;-74
2023/10/23 05:05:11;;;;;;;;;;;9.30;99.90;;;;;;2616942;47;19947;-74
2023/10/23 05:07:42;;;;;;;;;;;9.30;99.90;;;;;;2618102;47;20503;-75
2023/10/23 05:10:12;;;;;;;;;;;9.30;99.90;;;;;;2618184;54;19942;-74
2023/10/23 05:12:46;;;;;;;;;;;9.30;99.90;;;;;;2617721;47;20492;-75
2023/10/23 05:15:16;;;;;;;;;;;9.30;99.90;;;;;;2617716;54;19966;-76
2023/10/23 05:17:46;;;;;;;;;;;9.30;99.90;;;;;;2618929;39;20360;-74
2023/10/23 05:20:16;;;;;;;;;;;9.20;99.90;;;;;;2617338;47;19938;-74
2023/10/23 05:22:47;;;;;;;;;;;9.20;99.90;;;;;;2617849;47;19990;-75
2023/10/23 05:25:17;;;;;;;;;;;9.20;99.90;;;;;;2617771;47;19962;-74
2023/10/23 05:27:50;;;;;;;;;;;9.20;99.90;;;;;;2617607;54;19993;-75
2023/10/23 05:30:20;;;;;;;;;;;9.20;99.90;;;;;;2618549;47;19965;-75
2023/10/23 05:32:49;;;;;;;;;;;9.20;99.90;;;;;;2618357;39;20373;-75
2023/10/23 05:35:19;;;;;;;;;;;9.20;99.90;;;;;;2616492;47;19946;-74
2023/10/23 05:37:49;;;;;;;;;;;9.20;99.90;;;;;;2617984;47;19985;-75
2023/10/23 05:40:19;;;;;;;;;;;9.20;99.90;;;;;;2618439;39;20413;-75
2023/10/23 05:42:51;;;;;;;;;;;9.10;99.90;;;;;;2617503;47;20042;-75
2023/10/23 05:45:21;;;;;;;;;;;9.10;99.90;;;;;;2616659;39;20364;-75
2023/10/23 05:47:51;;;;;;;;;;;9.10;99.90;;;;;;2618257;54;19947;-74
2023/10/23 05:50:21;;;;;;;;;;;9.10;99.90;;;;;;2616665;47;19939;-75
2023/10/23 05:52:51;;;;;;;;;;;9.10;99.90;;;;;;2617893;47;20062;-74
2023/10/23 05:55:21;;;;;;;;;;;9.10;99.90;;;;;;2617236;47;20507;-74
2023/10/23 05:57:55;;;;;;;;;;;9.10;99.90;;;;;;2617782;54;19950;-75
2023/10/23 06:00:25;;;;;;;;;;;9.10;99.90;;;;;;2617523;46;20076;-75
2023/10/23 06:02:55;;;;;;;;;;;9.20;99.90;;;;;;2617808;47;19946;-74
2023/10/23 06:05:25;;;;;;;;;;;9.20;99.90;;;;;;2617285;47;19947;-75
2023/10/23 06:07:55;;;;;;;;;;;9.20;99.90;;;;;;2618261;39;20044;-75
2023/10/23 06:10:25;;;;;;;;;;;9.20;99.90;;;;;;2618154;47;19991;-74
2023/10/23 06:12:58;;;;;;;;;;;9.10;99.90;;;;;;2616994;47;20038;-75
2023/10/23 06:15:28;;;;;;;;;;;9.10;99.90;;;;;;2616891;39;20065;-75
2023/10/23 06:17:57;;;;;;;;;;;9.10;99.90;;;;;;2617030;47;19942;-75
2023/10/23 06:20:27;;;;;;;;;;;9.10;99.90;;;;;;2617798;47;19982;-74
2023/10/23 06:22:57;;;;;;;;;;;9.10;99.90;;;;;;2613905;47;19986;-73
2023/10/23 06:25:29;;;;;;;;;;;9.10;99.90;;;;;;2596427;51;20030;-73
2023/10/23 06:28:03;;;;;;;;;;;9.10;99.90;;;;;;2599451;54;19970;-73
2023/10/23 06:30:33;;;;;;;;;;;9.10;99.90;;;;;;2599473;48;19951;-72
2023/10/23 06:33:03;;;;;;;;;;;9.30;99.90;;;;;;2598450;47;19947;-72
2023/10/23 06:35:33;;;;;;;;;;;9.10;99.90;;;;;;2598619;54;19951;-72
2023/10/23 06:38:04;;;;;;;;;;;8.80;99.90;;;;;;2598317;54;19946;-72
2023/10/23 06:40:33;;;;;;;;;;;9.20;99.90;;;;;;2599690;47;19950;-71
2023/10/23 06:43:06;;;;;;;;;;;9.30;99.90;;;;;;2597916;47;19951;-71
2023/10/23 06:45:39;;;;;;;;;;;9.30;99.90;;;;;;2599255;53;21356;-71
2023/10/23 06:48:29;;;;;;;;;;;9.30;99.90;;;;;;2598375;54;19951;-71
2023/10/23 06:50:59;;;;;;;;;;;9.30;99.90;;;;;;2599901;47;19934;-71
2023/10/23 06:53:29;;;;;;;;;;;9.30;99.90;;;;;;2599544;47;20063;-72
2023/10/23 06:55:59;;;;;;;;;;;9.40;99.90;;;;;;2598218;54;19947;-72
2023/10/23 06:58:31;;;;;;;;;;;9.40;99.90;;;;;;2599755;39;20333;-73
2023/10/23 07:01:06;;;;;;;;;;;9.30;99.90;;;;;;2599976;54;19981;-71
2023/10/23 07:03:36;;;;;;;;;;;9.30;99.90;;;;;;2599671;47;19981;-71
2023/10/23 07:06:07;;;;;;;;;;;9.30;99.90;;;;;;2600630;47;19951;-72
2023/10/23 07:08:39;;;;;;;;;;;9.30;99.90;;;;;;2616892;54;19946;-71
2023/10/23 07:11:15;;;;;;;;;;;9.30;99.90;;;;;;2619833;47;19933;-81
2023/10/23 07:13:47;;;;;;;;;;;9.40;99.90;;;;;;2627022;54;19978;-77
2023/10/23 07:16:18;;;;;;;;;;;9.40;99.90;;;;;;2619153;54;19962;-77
2023/10/23 07:18:48;;;;;;;;;;;9.50;99.90;;;;;;2619328;54;20054;-75
2023/10/23 07:21:23;;;;;;;;;;;9.50;99.90;;;;;;2619558;54;19951;-76
2023/10/23 07:23:53;;;;;;;;;;;9.50;99.90;;;;;;2619449;47;19939;-76
2023/10/23 07:26:22;;;;;;;;;;;9.50;99.90;;;;;;2619274;47;19951;-75
2023/10/23 07:28:55;;;;;;;;;;;9.40;99.90;;;;;;2619916;54;19951;-76
2023/10/23 07:31:24;;;;;;;;;;;9.50;99.90;;;;;;2619680;54;20472;-76
2023/10/23 07:33:54;;;;;;;;;;;9.50;99.90;;;;;;2618970;47;19945;-76
2023/10/23 07:36:24;;;;;;;;;;;9.60;99.90;;;;;;2619113;47;19953;-76
2023/10/23 07:38:53;;;;;;;;;;;9.60;99.90;;;;;;2619806;47;19952;-76
2023/10/23 07:41:23;;;;;;;;;;;9.60;99.90;;;;;;2619261;47;19953;-77
2023/10/23 07:43:56;;;;;;;;;;;9.60;99.90;;;;;;2618757;47;20440;-77
2023/10/23 07:46:25;;;;;;;;;;;9.60;99.90;;;;;;2619229;47;19946;-76
2023/10/23 07:48:55;;;;;;;;;;;10.30;99.90;;;;;;2619256;47;19938;-76
2023/10/23 07:51:25;;;;;;;;;;;9.60;99.90;;;;;;2619640;47;20046;-76
2023/10/23 07:53:55;;;;;;;;;;;9.50;99.90;;;;;;2619094;47;20420;-77
2023/10/23 07:56:24;;;;;;;;;;;9.50;99.90;;;;;;2618937;47;19951;-77
2023/10/23 07:58:58;;;;;;;;;;;9.60;99.90;;;;;;2619973;47;19957;-77
2023/10/23 08:01:28;;;;;;;;;;;9.70;99.90;;;;;;2618784;54;19938;-77
2023/10/23 08:03:58;;;;;;;;;;;9.80;99.90;;;;;;2618294;51;19941;-76
2023/10/23 08:06:27;;;;;;;;;;;9.90;99.90;;;;;;2618375;47;20417;-75
2023/10/23 08:08:57;;;;;;;;;;;10.00;99.90;;;;;;2619676;39;20628;-76
2023/10/23 08:11:27;;;;;;;;;;;10.10;99.90;;;;;;2618010;47;20465;-77
2023/10/23 08:14:00;;;;;;;;;;;10.20;99.90;;;;;;2619017;47;20439;-75
2023/10/23 08:16:29;;;;;;;;;;;10.30;99.90;;;;;;2618010;54;19938;-75
2023/10/23 08:18:59;;;;;;;;;;;10.40;99.90;;;;;;2618999;54;19942;-76
2023/10/23 08:21:29;;;;;;;;;;;10.50;99.90;;;;;;2619404;46;19935;-76
2023/10/23 08:23:59;;;;;;;;;;;10.60;99.90;;;;;;2618301;47;20519;-73
2023/10/23 08:26:29;;;;;;;;;;;10.70;99.90;;;;;;2615574;47;20042;-72
2023/10/23 08:29:02;;;;;;;;;;;10.80;99.90;;;;;;2616382;54;19951;-72
2023/10/23 08:31:34;;;;;;;;;;;10.90;99.90;;;;;;2616185;54;19958;-71
2023/10/23 08:34:09;;;;;;;;;;;11.10;99.90;;;;;;2615691;54;19943;-72
2023/10/23 08:36:39;;;;;;;;;;;11.20;99.90;;;;;;2616318;54;19963;-76
2023/10/23 08:39:09;;;;;;;;;;;11.30;99.90;;;;;;2618896;39;20368;-77
2023/10/23 08:41:39;;;;;;;;;;;10.20;99.90;;;;;;2617584;46;20040;-76
2023/10/23 08:44:14;;;;;;;;;;;11.10;99.90;;;;;;2616409;54;19947;-75
2023/10/23 08:46:43;;;;;;;;;;;11.50;99.90;;;;;;2616460;47;19945;-74
2023/10/23 08:49:13;;;;;;;;;;;11.60;99.90;;;;;;2615490;54;20452;-75
2023/10/23 08:51:49;;;;;;;;;;;11.70;99.90;;;;;;2617010;54;20002;-76
2023/10/23 08:54:20;;;;;;;;;;;11.70;99.90;;;;;;2617651;39;20455;-75
2023/10/23 08:56:54;;;;;;;;;;;11.80;99.90;;;;;;2616529;47;19946;-61
2023/10/23 08:59:27;;;;;;;;;;;11.80;99.90;;;;;;2615781;46;19966;-61
2023/10/23 09:01:57;;;;;;;;;;;12.00;99.90;;;;;;2615993;47;20034;-60
2023/10/23 09:04:30;;;;;;;;;;;12.10;99.90;;;;;;2614518;54;19950;-59
2023/10/23 09:07:01;;;;;;;;;;;12.20;99.90;;;;;;2616196;54;19957;-61
2023/10/23 09:09:31;;;;;;;;;;;12.30;99.90;;;;;;2615660;54;19951;-61
2023/10/23 09:12:03;;;;;;;;;;;12.40;99.90;;;;;;2615105;54;19946;-61
2023/10/23 09:14:36;;;;;;;;;;;12.50;99.90;;;;;;2614900;47;19946;-62
2023/10/23 09:17:05;;;;;;;;;;;12.60;99.90;;;;;;2616503;52;19938;-62
2023/10/23 09:19:36;;;;;;;;;;;12.70;99.90;;;;;;2615643;39;20397;-61
2023/10/23 09:22:09;;;;;;;;;;;12.80;99.90;;;;;;2616018;54;19966;-60
2023/10/23 09:24:39;;;;;;;;;;;12.90;99.90;;;;;;2615517;54;19946;-60
2023/10/23 09:27:09;;;;;;;;;;;13.00;99.90;;;;;;2615547;47;19946;-61
2023/10/23 09:29:41;;;;;;;;;;;13.10;99.90;;;;;;2615388;54;19989;-61
2023/10/23 09:32:11;;;;;;;;;;;13.20;99.90;;;;;;2615898;54;19966;-61
2023/10/23 09:34:44;;;;;;;;;;;13.30;99.90;;;;;;2614816;47;19969;-62
2023/10/23 09:37:14;;;;;;;;;;;13.40;99.90;;;;;;2615691;54;19993;-62
2023/10/23 09:39:43;;;;;;;;;;;13.40;99.90;;;;;;2616173;54;19947;-61
2023/10/23 09:42:13;;;;;;;;;;;13.50;99.90;;;;;;2616327;39;20059;-60
2023/10/23 09:44:45;;;;;;;;;;;13.50;99.90;;;;;;2615346;54;19947;-61
2023/10/23 09:47:16;;;;;;;;;;;13.60;99.90;;;;;;2615869;54;19938;-60
2023/10/23 09:49:46;;;;;;;;;;;13.60;99.90;;;;;;2615355;54;20458;-62
2023/10/23 09:52:16;;;;;;;;;;;13.70;99.90;;;;;;2616000;39;20357;-63
2023/10/23 09:54:48;;;;;;;;;;;13.70;99.90;;;;;;2615746;54;19945;-60
2023/10/23 09:57:24;;;;;;;;;;;13.70;99.90;;;;;;2615836;39;20459;-61
2023/10/23 10:00:04;;;;;;;;;;;13.80;99.90;;;;;;2615898;54;19946;-62
2023/10/23 10:02:36;;;;;;;;;;;13.80;99.90;;;;;;2615827;54;21195;-60
2023/10/23 10:05:08;;;;;;;;;;;13.80;99.90;;;;;;2614504;54;19963;-61
2023/10/23 10:07:41;;;;;;;;;;;13.80;99.90;;;;;;2615806;54;19958;-59
2023/10/23 10:10:11;;;;;;;;;;;13.80;99.90;;;;;;2615161;47;19994;-76
2023/10/23 10:12:43;;;;;;;;;;;13.70;99.90;;;;;;2617856;54;20046;-77
2023/10/23 10:15:16;;;;;;;;;;;13.60;99.90;;;;;;2615710;47;19955;-76
2023/10/23 10:17:46;;;;;;;;;;;13.60;99.90;;;;;;2617542;46;19945;-76
2023/10/23 10:20:16;;;;;;;;;;;13.60;99.90;;;;;;2616515;47;20019;-75
2023/10/23 10:22:45;;;;;;;;;;;13.60;99.90;;;;;;2618188;47;19947;-77
2023/10/23 10:25:16;;;;;;;;;;;13.60;99.90;;;;;;2619056;46;19959;-77
2023/10/23 10:27:45;;;;;;;;;;;13.70;99.90;;;;;;2616984;47;20690;-77
2023/10/23 10:30:30;;;;;;;;;;;13.70;99.90;;;;;;2618818;39;20385;-77
2023/10/23 10:33:05;;;;;;;;;;;13.80;99.90;;;;;;2620938;54;19998;-76
2023/10/23 10:36:00;;;;;;;;;;;13.90;99.90;;;;;;2622979;47;19942;-77
2023/10/23 10:38:31;;;;;;;;;;;13.90;99.90;;;;;;2620490;54;19946;-76
2023/10/23 10:41:01;;;;;;;;;;;14.00;99.90;;;;;;2618652;47;19949;-77
2023/10/23 10:43:32;;;;;;;;;;;14.10;99.90;;;;;;2618870;46;19939;-77
2023/10/23 10:46:04;;;;;;;;;;;14.10;99.90;;;;;;2619947;47;19968;-77
2023/10/23 10:48:46;;;;;;;;;;;14.20;99.90;;;;;;2619290;47;19999;-76
2023/10/23 10:51:17;;;;;;;;;;;14.30;99.90;;;;;;2619937;50;19946;-76
2023/10/23 10:53:48;;;;;;;;;;;14.30;99.90;;;;;;2616073;54;19947;-76
2023/10/23 10:56:17;;;;;;;;;;;14.40;99.90;;;;;;2617027;54;19942;-75
2023/10/23 10:58:48;;;;;;;;;;;14.40;99.90;;;;;;2618019;47;19969;-76
2023/10/23 11:01:17;;;;;;;;;;;14.50;99.90;;;;;;2617425;47;19943;-76
2023/10/23 11:03:51;;;;;;;;;;;14.50;99.90;;;;;;2618621;54;19954;-76
2023/10/23 11:06:21;;;;;;;;;;;14.60;99.90;;;;;;2619152;47;19938;-77
2023/10/23 11:08:50;;;;;;;;;;;14.60;99.90;;;;;;2621050;51;20007;-77
2023/10/23 11:11:20;;;;;;;;;;;14.70;99.90;;;;;;2619716;47;19946;-75
2023/10/23 11:13:50;;;;;;;;;;;14.80;99.90;;;;;;2620658;39;20406;-77
2023/10/23 11:16:20;;;;;;;;;;;14.40;99.90;;;;;;2619848;47;19946;-76
2023/10/23 11:18:53;;;;;;;;;;;15.00;99.90;;;;;;2619589;54;19950;-76
2023/10/23 11:21:24;;;;;;;;;;;15.00;99.90;;;;;;2619584;54;19950;-77
2023/10/23 11:23:56;;;;;;;;;;;15.00;99.90;;;;;;2619631;47;19943;-76
2023/10/23 11:26:26;;;;;;;;;;;15.10;99.90;;;;;;2619095;39;20041;-76
2023/10/23 11:28:56;;;;;;;;;;;15.10;99.90;;;;;;2619991;47;19949;-77
2023/10/23 11:31:25;;;;;;;;;;;15.20;99.90;;;;;;2619429;47;19953;-77
2023/10/23 11:33:59;;;;;;;;;;;15.20;99.90;;;;;;2618429;47;19950;-77
2023/10/23 11:36:29;;;;;;;;;;;15.10;99.90;;;;;;2619073;54;20541;-76
2023/10/23 11:38:59;;;;;;;;;;;15.30;99.90;;;;;;2615827;47;19939;-76
2023/10/23 11:41:30;;;;;;;;;;;15.30;99.90;;;;;;2616538;47;19943;-78
2023/10/23 11:44:03;;;;;;;;;;;15.30;99.90;;;;;;2618559;47;19986;-76
2023/10/23 11:46:33;;;;;;;;;;;15.30;99.90;;;;;;2616107;47;19950;-74
2023/10/23 11:49:06;;;;;;;;;;;15.30;99.90;;;;;;2617599;47;19954;-74
2023/10/23 11:51:35;;;;;;;;;;;15.30;99.90;;;;;;2615664;47;19950;-75
2023/10/23 11:54:06;;;;;;;;;;;15.30;99.90;;;;;;2617201;47;19951;-74
2023/10/23 11:56:36;;;;;;;;;;;15.30;99.90;;;;;;2616865;47;19947;-76
2023/10/23 11:59:07;;;;;;;;;;;15.30;99.90;;;;;;2618005;49;20038;-75
2023/10/23 12:01:36;;;;;;;;;;;15.20;99.90;;;;;;2619632;47;19957;-76
2023/10/23 12:04:09;;;;;;;;;;;15.30;99.90;;;;;;2619966;47;19947;-76
2023/10/23 12:06:39;;;;;;;;;;;15.30;99.90;;;;;;2619983;47;19946;-76
2023/10/23 12:09:10;;;;;;;;;;;15.20;99.90;;;;;;2620689;39;20399;-76
2023/10/23 12:11:40;;;;;;;;;;;15.20;99.90;;;;;;2620987;47;19947;-76
2023/10/23 12:14:10;;;;;;;;;;;15.30;99.90;;;;;;2622154;47;19974;-77
2023/10/23 12:16:39;;;;;;;;;;;15.30;99.90;;;;;;2620446;47;19942;-77
2023/10/23 12:19:12;;;;;;;;;;;15.30;99.90;;;;;;2620864;47;19947;-76
2023/10/23 12:21:41;;;;;;;;;;;15.20;99.90;;;;;;2620272;54;20191;-77
2023/10/23 12:24:11;;;;;;;;;;;15.30;99.90;;;;;;2620390;47;19958;-76
2023/10/23 12:26:41;;;;;;;;;;;15.20;99.90;;;;;;2618922;46;19957;-76
2023/10/23 12:29:12;;;;;;;;;;;15.20;99.90;;;;;;2619045;54;19938;-75
2023/10/23 12:31:43;;;;;;;;;;;15.20;99.90;;;;;;2618161;49;19959;-76
2023/10/23 12:34:35;;;;;;;;;;;15.20;99.90;;;;;;2617153;31;20544;-74
2023/10/23 12:37:05;;;;;;;;;;;15.10;99.90;;;;;;2619058;54;19962;-76
2023/10/23 12:39:35;;;;;;;;;;;15.10;99.90;;;;;;2619704;47;19954;-76
2023/10/23 12:42:05;;;;;;;;;;;15.10;99.90;;;;;;2620897;54;19950;-78
2023/10/23 12:44:35;;;;;;;;;;;15.00;99.90;;;;;;2621786;47;19962;-78
2023/10/23 12:47:05;;;;;;;;;;;15.00;99.90;;;;;;2620187;47;19946;-78
2023/10/23 12:49:37;;;;;;;;;;;14.90;99.90;;;;;;2618252;46;20062;-79
2023/10/23 12:52:07;;;;;;;;;;;14.90;99.90;;;;;;2619843;47;19942;-77
2023/10/23 12:54:37;;;;;;;;;;;14.90;99.90;;;;;;2617763;54;19954;-76
2023/10/23 12:57:07;;;;;;;;;;;14.80;99.90;;;;;;2621023;54;19959;-76
2023/10/23 12:59:37;;;;;;;;;;;14.80;99.90;;;;;;2619273;54;19939;-76
2023/10/23 13:02:07;;;;;;;;;;;14.70;99.90;;;;;;2617739;54;19950;-78
2023/10/23 13:04:40;;;;;;;;;;;14.70;99.90;;;;;;2618405;47;19947;-78
2023/10/23 13:07:10;;;;;;;;;;;14.70;99.90;;;;;;2619671;54;20485;-76
2023/10/23 13:09:39;;;;;;;;;;;14.70;99.90;;;;;;2617230;46;19950;-76
2023/10/23 13:12:10;;;;;;;;;;;14.70;99.90;;;;;;2617786;54;19958;-76
2023/10/23 13:14:39;;;;;;;;;;;14.70;99.90;;;;;;2617052;47;20050;-76
2023/10/23 13:17:09;;;;;;;;;;;14.80;99.90;;;;;;2617575;47;19946;-76
2023/10/23 13:19:41;;;;;;;;;;;14.80;99.90;;;;;;2615949;54;20564;-76
2023/10/23 13:22:14;;;;;;;;;;;14.80;99.90;;;;;;2617931;54;19954;-74
2023/10/23 13:24:44;;;;;;;;;;;14.70;99.90;;;;;;2617691;46;19954;-75
2023/10/23 13:27:15;;;;;;;;;;;14.70;99.90;;;;;;2617024;47;20063;-75
2023/10/23 13:29:44;;;;;;;;;;;14.70;99.90;;;;;;2619415;39;20337;-76
2023/10/23 13:32:14;;;;;;;;;;;14.70;99.90;;;;;;2618094;47;19947;-74
2023/10/23 13:34:46;;;;;;;;;;;14.70;99.90;;;;;;2616662;39;20387;-76
2023/10/23 13:37:16;;;;;;;;;;;14.70;99.90;;;;;;2616796;46;19954;-75
2023/10/23 13:39:46;;;;;;;;;;;14.60;99.90;;;;;;2617044;54;20050;-75
2023/10/23 13:42:16;;;;;;;;;;;14.60;99.90;;;;;;2616373;47;20038;-77
2023/10/23 13:44:46;;;;;;;;;;;14.60;99.90;;;;;;2616213;47;19947;-76
2023/10/23 13:47:17;;;;;;;;;;;14.60;99.90;;;;;;2616624;46;20030;-76
2023/10/23 13:49:49;;;;;;;;;;;14.60;99.90;;;;;;2617787;47;19986;-77
2023/10/23 13:52:19;;;;;;;;;;;14.60;99.90;;;;;;2619053;54;19962;-76
2023/10/23 13:54:49;;;;;;;;;;;14.60;99.90;;;;;;2621009;54;20013;-76
2023/10/23 13:57:18;;;;;;;;;;;14.60;99.90;;;;;;2622357;47;19946;-75
2023/10/23 13:59:49;;;;;;;;;;;14.60;99.90;;;;;;2625586;54;20054;-75
2023/10/23 14:02:19;;;;;;;;;;;14.60;99.90;;;;;;2626288;47;20034;-76
2023/10/23 14:04:52;;;;;;;;;;;14.60;99.90;;;;;;2626138;47;19942;-76
2023/10/23 14:07:22;;;;;;;;;;;14.60;99.90;;;;;;2625385;47;19966;-74
2023/10/23 14:09:52;;;;;;;;;;;14.70;99.90;;;;;;2626047;47;19938;-75
2023/10/23 14:12:22;;;;;;;;;;;14.70;99.90;;;;;;2624551;54;19950;-75
2023/10/23 14:14:51;;;;;;;;;;;14.70;99.90;;;;;;2624650;54;19942;-75
2023/10/23 14:17:21;;;;;;;;;;;14.70;99.90;;;;;;2626279;54;19973;-75
2023/10/23 14:19:53;;;;;;;;;;;14.70;99.90;;;;;;2625861;47;20026;-76
2023/10/23 14:22:23;;;;;;;;;;;14.70;99.90;;;;;;2626795;54;19970;-75
2023/10/23 14:24:53;;;;;;;;;;;14.70;99.90;;;;;;2626388;47;19973;-75
2023/10/23 14:27:22;;;;;;;;;;;14.70;99.90;;;;;;2620472;39;20345;-76
2023/10/23 14:29:52;;;;;;;;;;;14.70;99.90;;;;;;2617264;47;19946;-76
2023/10/23 14:32:22;;;;;;;;;;;14.70;99.90;;;;;;2621663;54;19972;-74
2023/10/23 14:34:54;;;;;;;;;;;14.70;99.90;;;;;;2620905;47;19946;-74
2023/10/23 14:37:24;;;;;;;;;;;14.70;99.90;;;;;;2622785;54;20575;-75
2023/10/23 14:39:54;;;;;;;;;;;14.70;99.90;;;;;;2617643;47;20823;-72
2023/10/23 14:42:27;;;;;;;;;;;14.70;99.90;;;;;;2603157;39;20463;-76